Terri-ann — WBD3593 — position and weather

sailwx.info

Track history (hours):
 
Tides and Currents Weather Stations Pressure Air Temp Water Temp Dewpoint Dewpoint Depression Visibility Wind Speed Wind Dir Waves Ship Positions

Terri-ann

Owner: CALICO LOBSTER CO INC, SANDWICH, MA. More information available from US FCC via Universal Licensing System and Coast Guard Vessel Documentation Center.

Last reported at 2015-May-05 05:33 UTC. Time now 2015-May-05 06:12 UTC.
Position N 40°47' W 070°07'.

Length 21 m.

Type: Fishing. MMSI: 367149920.

Date/timePositionNaut miles runAvg speedWind from/ knotsBaromVisibWave heightAir tempDewpointWater temp
2015-May-05 05:33N 40°47' W 070°07'8 8.1
2015-May-05 04:33N 40°42' W 069°59'8 8.4
2015-May-05 03:33N 40°36' W 069°51'22 8.7
2015-May-05 01:04N 40°21' W 069°31'5 9.2
2015-May-05 00:33N 40°17' W 069°26'10 9.1
2015-May-04 23:26N 40°10' W 069°17'8 8.9
2015-May-04 22:33N 40°05' W 069°09'28 2.1
2015-May-04 09:33N 40°09' W 069°45'73 9.0
2015-May-04 01:27N 41°09' W 070°40'8 8.8
2015-May-04 00:30N 41°16' W 070°46'8 7.7
2015-May-03 23:31N 41°22' W 070°51'9 7.9
2015-May-03 22:21N 41°31' W 070°48'  
Track history (hours):
 
Tides and Currents Weather Stations Pressure Air Temp Water Temp Dewpoint Dewpoint Depression Visibility Wind Speed Wind Dir Waves Ship Positions

Terri-ann

Owner: CALICO LOBSTER CO INC, SANDWICH, MA. More information available from US FCC via Universal Licensing System and Coast Guard Vessel Documentation Center.

Last reported at 2015-May-05 05:33 UTC. Time now 2015-May-05 06:12 UTC.
Position N 40°47' W 070°07'.

Length 21 m.

Type: Fishing. MMSI: 367149920.

Date/timePositionNaut miles runAvg speedWind from/ knotsBaromVisibWave heightAir tempDewpointWater temp
2015-May-05 05:33N 40°47' W 070°07'8 8.1
2015-May-05 04:33N 40°42' W 069°59'8 8.4
2015-May-05 03:33N 40°36' W 069°51'22 8.7
2015-May-05 01:04N 40°21' W 069°31'5 9.2
2015-May-05 00:33N 40°17' W 069°26'10 9.1
2015-May-04 23:26N 40°10' W 069°17'8 8.9
2015-May-04 22:33N 40°05' W 069°09'28 2.1
2015-May-04 09:33N 40°09' W 069°45'73 9.0
2015-May-04 01:27N 41°09' W 070°40'8 8.8
2015-May-04 00:30N 41°16' W 070°46'8 7.7
2015-May-03 23:31N 41°22' W 070°51'9 7.9
2015-May-03 22:21N 41°31' W 070°48'  

Dump ship's entire track history